createdAt,value
2019-04-25T00:02:04.096Z,83.80
2019-04-25T00:04:34.481Z,84.20
2019-04-25T00:07:04.781Z,84.20
2019-04-25T00:09:43.070Z,84.60
2019-04-25T00:12:14.696Z,84.60
2019-04-25T00:14:45.822Z,84.80
2019-04-25T00:17:16.410Z,85.30
2019-04-25T00:19:48.613Z,85.20
2019-04-25T00:22:26.021Z,85.20
2019-04-25T00:25:17.533Z,85.40
2019-04-25T00:27:47.173Z,85.40
2019-04-25T00:30:18.150Z,86.20
2019-04-25T00:32:49.246Z,86.60
2019-04-25T00:35:19.685Z,86.90
2019-04-25T00:37:49.992Z,87.50
2019-04-25T00:40:21.899Z,88.30
2019-04-25T00:42:53.739Z,88.70
2019-04-25T00:45:24.194Z,89.70
2019-04-25T00:47:54.581Z,89.10
2019-04-25T00:50:24.921Z,89.00
2019-04-25T00:52:55.301Z,89.40
2019-04-25T00:55:28.523Z,90.00
2019-04-25T00:58:04.285Z,90.20
2019-04-25T01:01:09.041Z,90.40
2019-04-25T01:03:39.852Z,90.50
2019-04-25T01:06:12.037Z,91.10
2019-04-25T01:08:42.454Z,91.10
2019-04-25T01:11:12.956Z,91.10
2019-04-25T01:13:44.571Z,91.10
2019-04-25T01:16:15.128Z,91.20
2019-04-25T01:18:45.520Z,91.30
2019-04-25T01:21:15.895Z,91.40
2019-04-25T01:23:46.193Z,91.40
2019-04-25T01:26:16.523Z,91.40
2019-04-25T01:28:47.630Z,91.40
2019-04-25T01:31:20.565Z,91.50
2019-04-25T01:33:54.286Z,91.40
2019-04-25T01:36:53.222Z,91.50
2019-04-25T01:39:44.200Z,91.40
2019-04-25T01:42:33.758Z,91.50
2019-04-25T01:45:05.057Z,91.50
2019-04-25T01:47:35.397Z,91.50
2019-04-25T01:50:07.112Z,91.50
2019-04-25T01:52:37.949Z,91.70
2019-04-25T01:55:08.397Z,91.90
2019-04-25T01:57:38.813Z,92.00
2019-04-25T02:00:11.697Z,92.10
2019-04-25T02:02:43.481Z,92.10
2019-04-25T02:05:14.568Z,92.20
2019-04-25T02:07:45.101Z,92.30
2019-04-25T02:10:15.777Z,92.40
2019-04-25T02:12:51.343Z,92.50
2019-04-25T02:15:25.873Z,92.70
2019-04-25T02:17:57.180Z,92.70
2019-04-25T02:20:28.280Z,92.60
2019-04-25T02:22:58.677Z,92.70
2019-04-25T02:25:29.089Z,92.80
2019-04-25T02:28:01.480Z,92.90
2019-04-25T02:30:31.495Z,92.90
2019-04-25T02:33:06.233Z,93.00
2019-04-25T02:35:34.986Z,93.10
2019-04-25T02:38:08.835Z,93.20
2019-04-25T02:40:37.587Z,93.20
2019-04-25T02:43:08.354Z,93.40
2019-04-25T02:46:07.424Z,93.40
2019-04-25T02:49:09.171Z,93.40
2019-04-25T02:51:41.276Z,93.40
2019-04-25T02:54:13.842Z,93.40
2019-04-25T02:56:46.423Z,93.40
2019-04-25T02:59:15.559Z,93.50
2019-04-25T03:01:45.986Z,93.60
2019-04-25T03:04:16.287Z,93.50
2019-04-25T03:06:46.647Z,93.50
2019-04-25T03:09:16.911Z,93.60
2019-04-25T03:11:47.700Z,93.70
2019-04-25T03:14:18.251Z,93.70
2019-04-25T03:16:48.915Z,93.70
2019-04-25T03:19:40.680Z,93.80
2019-04-25T03:22:14.918Z,93.80
2019-04-25T03:24:45.872Z,93.70
2019-04-25T03:27:16.471Z,93.70
2019-04-25T03:29:46.785Z,93.70
2019-04-25T03:32:19.876Z,93.70
2019-04-25T03:34:49.041Z,93.70
2019-04-25T03:37:19.363Z,93.90
2019-04-25T03:39:49.649Z,94.00
2019-04-25T03:42:20.129Z,93.90
2019-04-25T03:44:50.448Z,94.00
2019-04-25T03:47:20.777Z,94.00
2019-04-25T03:49:51.072Z,94.10
2019-04-25T03:52:21.428Z,94.10
2019-04-25T03:54:53.324Z,94.40
2019-04-25T03:57:23.770Z,94.90
2019-04-25T03:59:54.085Z,95.10
2019-04-25T04:02:24.452Z,95.00
2019-04-25T04:04:54.756Z,95.00
2019-04-25T04:07:25.076Z,95.00
2019-04-25T04:09:55.473Z,94.90
2019-04-25T04:12:25.956Z,95.00
2019-04-25T04:14:56.258Z,95.20
2019-04-25T04:17:44.052Z,95.70
2019-04-25T04:20:39.541Z,95.30
2019-04-25T04:23:24.301Z,95.30
2019-04-25T04:25:54.772Z,95.70
2019-04-25T04:28:25.137Z,95.70
2019-04-25T04:30:55.454Z,96.30
2019-04-25T04:33:31.865Z,96.30
2019-04-25T04:35:57.688Z,96.60
2019-04-25T04:38:29.076Z,96.60
2019-04-25T04:40:59.510Z,97.00
2019-04-25T04:43:29.808Z,96.80
2019-04-25T04:46:00.104Z,97.50
2019-04-25T04:48:30.444Z,97.80
2019-04-25T04:51:00.745Z,98.10
2019-04-25T04:53:31.062Z,98.20
2019-04-25T04:56:01.390Z,98.20
2019-04-25T04:58:31.717Z,98.30
2019-04-25T05:01:03.631Z,98.30
2019-04-25T05:03:57.109Z,98.20
2019-04-25T05:06:45.457Z,98.20
2019-04-25T05:09:19.770Z,98.00
2019-04-25T05:11:50.253Z,97.90
2019-04-25T05:14:20.674Z,97.70
2019-04-25T05:16:51.054Z,97.80
2019-04-25T05:19:22.404Z,97.80
2019-04-25T05:21:53.689Z,97.80
2019-04-25T05:24:26.344Z,97.90
2019-04-25T05:26:56.149Z,97.90
2019-04-25T05:29:26.758Z,97.80
2019-04-25T05:31:57.236Z,97.80
2019-04-25T05:34:27.676Z,97.70
2019-04-25T05:36:58.088Z,97.70
2019-04-25T05:39:28.433Z,97.70
2019-04-25T05:43:55.766Z,97.70
2019-04-25T05:46:26.309Z,97.60
2019-04-25T05:48:56.811Z,97.50
2019-04-25T05:51:27.152Z,97.50
2019-04-25T05:53:57.590Z,97.50
2019-04-25T05:56:28.291Z,97.50
2019-04-25T05:58:58.860Z,97.50
2019-04-25T06:01:30.189Z,97.50
2019-04-25T06:04:00.721Z,97.50
2019-04-25T06:06:36.105Z,97.30
2019-04-25T06:09:25.059Z,97.40
2019-04-25T06:12:14.230Z,97.50
2019-04-25T06:14:44.656Z,97.10
2019-04-25T06:17:20.015Z,97.00
2019-04-25T06:19:53.419Z,97.10
2019-04-25T06:22:48.188Z,96.80
2019-04-25T06:25:21.400Z,96.70
2019-04-25T06:27:57.226Z,96.70
2019-04-25T06:30:28.322Z,96.80
2019-04-25T06:32:58.616Z,96.80
2019-04-25T06:35:30.250Z,96.10
2019-04-25T06:38:00.738Z,96.00
2019-04-25T06:40:31.089Z,95.90
2019-04-25T06:43:03.358Z,95.70
2019-04-25T06:45:40.891Z,95.40
2019-04-25T06:48:27.058Z,95.00
2019-04-25T06:50:57.508Z,94.70
2019-04-25T06:53:28.413Z,94.60
2019-04-25T06:55:58.827Z,94.30
2019-04-25T06:58:30.065Z,94.00
2019-04-25T07:01:01.132Z,93.80
2019-04-25T07:03:31.568Z,93.70
2019-04-25T07:06:03.247Z,93.40
2019-04-25T07:08:35.202Z,93.70
2019-04-25T07:11:05.737Z,93.80
2019-04-25T07:13:38.694Z,93.30
2019-04-25T07:16:08.100Z,93.20
2019-04-25T07:18:38.585Z,93.10
2019-04-25T07:21:08.937Z,93.00
2019-04-25T07:23:39.356Z,92.80
2019-04-25T07:26:16.814Z,92.40
2019-04-25T07:29:00.174Z,92.10
2019-04-25T07:31:41.589Z,91.50
2019-04-25T07:34:15.489Z,91.70
2019-04-25T07:36:45.835Z,91.60
2019-04-25T07:39:16.237Z,91.30
2019-04-25T07:41:46.618Z,91.20
2019-04-25T07:44:17.149Z,91.10
2019-04-25T07:46:47.681Z,90.70
2019-04-25T07:49:17.992Z,90.90
2019-04-25T07:51:48.352Z,90.40
2019-04-25T07:54:18.658Z,90.20
2019-04-25T07:56:49.046Z,89.30
2019-04-25T07:59:19.367Z,89.70
2019-04-25T08:01:49.764Z,89.80
2019-04-25T08:04:20.080Z,89.00
2019-04-25T08:06:50.461Z,88.60
2019-04-25T08:09:20.906Z,87.10
2019-04-25T08:11:51.526Z,86.20
2019-04-25T08:14:38.653Z,85.00
2019-04-25T08:17:10.825Z,84.20
2019-04-25T08:19:41.613Z,84.00
2019-04-25T08:22:13.607Z,84.80
2019-04-25T08:24:44.562Z,84.80
2019-04-25T08:27:14.936Z,82.90
2019-04-25T08:29:46.498Z,83.20
2019-04-25T08:32:17.027Z,81.20
2019-04-25T08:34:47.345Z,80.60
2019-04-25T08:37:21.047Z,80.30
2019-04-25T08:39:50.481Z,78.80
2019-04-25T08:42:20.881Z,78.30
2019-04-25T08:44:51.204Z,78.90
2019-04-25T08:47:21.814Z,78.40
2019-04-25T08:50:03.616Z,78.60
2019-04-25T08:52:33.623Z,77.30
2019-04-25T08:55:14.223Z,77.50
2019-04-25T08:58:06.721Z,77.50
2019-04-25T09:01:03.888Z,76.40
2019-04-25T09:03:44.366Z,76.10
2019-04-25T09:06:14.825Z,75.80
2019-04-25T09:08:46.529Z,74.50
2019-04-25T09:11:16.969Z,74.20
2019-04-25T09:13:47.293Z,73.00
2019-04-25T09:16:17.779Z,72.90
2019-04-25T09:18:48.094Z,73.00
2019-04-25T09:21:21.113Z,71.50
2019-04-25T09:23:51.413Z,71.40
2019-04-25T09:26:21.745Z,71.30
2019-04-25T09:28:53.704Z,70.00
2019-04-25T09:31:24.172Z,69.90
2019-04-25T09:33:56.058Z,68.60
2019-04-25T09:36:26.392Z,69.20
2019-04-25T09:38:59.349Z,67.50
2019-04-25T09:41:29.722Z,67.30
2019-04-25T09:44:04.561Z,66.60
2019-04-25T09:46:37.213Z,66.40
2019-04-25T09:49:16.384Z,66.20
2019-04-25T09:51:53.549Z,66.20
2019-04-25T09:54:44.141Z,65.90
2019-04-25T09:57:45.974Z,66.60
2019-04-25T10:00:28.349Z,66.80
2019-04-25T10:02:58.849Z,65.10
2019-04-25T10:05:29.754Z,65.10
2019-04-25T10:08:00.160Z,63.10
2019-04-25T10:10:30.937Z,63.40
2019-04-25T10:13:04.008Z,63.00
2019-04-25T10:16:04.255Z,62.20
2019-04-25T10:18:35.511Z,62.10
2019-04-25T10:21:08.803Z,59.50
2019-04-25T10:23:39.828Z,59.40
2019-04-25T10:26:11.594Z,59.20
2019-04-25T10:28:44.055Z,59.00
2019-04-25T10:31:14.530Z,58.20
2019-04-25T10:33:45.846Z,57.80
2019-04-25T10:36:16.958Z,57.70
2019-04-25T10:39:02.155Z,57.90
2019-04-25T10:41:19.921Z,57.50
2019-04-25T10:43:50.496Z,57.50
2019-04-25T10:46:21.725Z,56.70
2019-04-25T10:48:54.007Z,56.50
2019-04-25T10:51:24.073Z,56.60
2019-04-25T10:53:55.103Z,56.60
2019-04-25T10:56:25.598Z,56.90
2019-04-25T10:58:56.542Z,56.70
2019-04-25T11:01:28.253Z,56.80
2019-04-25T11:04:06.949Z,56.60
2019-04-25T11:06:37.332Z,56.30
2019-04-25T11:09:13.790Z,56.50
2019-04-25T11:11:44.177Z,56.70
2019-04-25T11:14:14.942Z,57.30
2019-04-25T11:16:46.513Z,56.70
2019-04-25T11:19:16.945Z,56.90
2019-04-25T11:21:47.730Z,55.80
2019-04-25T11:24:18.074Z,56.20
2019-04-25T11:26:50.394Z,56.60
2019-04-25T11:29:20.347Z,56.40
2019-04-25T11:31:50.970Z,57.10
2019-04-25T11:34:21.421Z,56.70
2019-04-25T11:36:51.734Z,57.40
2019-04-25T11:39:39.876Z,57.30
2019-04-25T11:42:14.894Z,57.80
2019-04-25T11:44:45.764Z,56.90
2019-04-25T11:47:16.198Z,56.40
2019-04-25T11:49:47.786Z,56.20
2019-04-25T11:52:27.640Z,56.50
2019-04-25T11:54:52.854Z,55.50
2019-04-25T11:59:28.988Z,54.90
2019-04-25T12:02:01.180Z,54.90
2019-04-25T12:04:33.240Z,55.20
2019-04-25T12:07:07.181Z,55.20
2019-04-25T12:09:38.214Z,54.50
2019-04-25T12:12:10.042Z,53.80
2019-04-25T12:14:44.211Z,54.40
2019-04-25T12:17:15.829Z,55.50
2019-04-25T12:19:47.395Z,54.00
2019-04-25T12:22:18.473Z,53.30
2019-04-25T12:24:52.284Z,52.90
2019-04-25T12:27:23.291Z,53.10
2019-04-25T12:29:54.460Z,51.80
2019-04-25T12:32:25.858Z,51.60
2019-04-25T12:34:57.115Z,50.60
2019-04-25T12:37:27.511Z,49.90
2019-04-25T12:40:04.387Z,50.50
2019-04-25T12:42:37.491Z,51.50
2019-04-25T12:45:24.158Z,51.50
2019-04-25T12:47:57.657Z,50.80
2019-04-25T12:50:26.743Z,51.00
2019-04-25T12:52:58.042Z,51.40
2019-04-25T12:55:28.592Z,51.70
2019-04-25T12:57:58.859Z,50.70
2019-04-25T13:00:30.092Z,50.20
2019-04-25T13:03:00.397Z,49.60
2019-04-25T13:05:30.937Z,49.80
2019-04-25T13:08:01.344Z,49.20
2019-04-25T13:10:33.199Z,48.20
2019-04-25T13:13:03.957Z,48.30
2019-04-25T13:15:35.063Z,47.50
2019-04-25T13:18:06.496Z,47.70
2019-04-25T13:20:36.846Z,48.60
2019-04-25T13:23:07.918Z,49.80
2019-04-25T13:25:38.324Z,49.50
2019-04-25T13:28:26.817Z,48.90
2019-04-25T13:31:14.896Z,48.60
2019-04-25T13:34:05.806Z,47.70
2019-04-25T13:36:36.490Z,48.80
2019-04-25T13:39:13.202Z,49.30
2019-04-25T13:41:44.782Z,49.30
2019-04-25T13:44:15.175Z,49.10
2019-04-25T13:46:45.649Z,49.50
2019-04-25T13:49:16.326Z,49.00
2019-04-25T13:51:46.685Z,48.50
2019-04-25T13:54:17.065Z,48.20
2019-04-25T13:56:47.466Z,47.30
2019-04-25T13:59:18.119Z,47.80
2019-04-25T14:01:48.668Z,47.60
2019-04-25T14:04:19.151Z,48.20
2019-04-25T14:06:49.476Z,48.50
2019-04-25T14:09:21.476Z,47.10
2019-04-25T14:11:53.976Z,46.90
2019-04-25T14:14:24.658Z,45.80
2019-04-25T14:17:09.375Z,45.80
2019-04-25T14:20:05.431Z,46.50
2019-04-25T14:22:36.466Z,47.00
2019-04-25T14:25:07.831Z,46.10
2019-04-25T14:27:38.302Z,46.00
2019-04-25T14:30:10.633Z,46.00
2019-04-25T14:32:41.364Z,45.80
2019-04-25T14:35:11.705Z,46.60
2019-04-25T14:37:43.839Z,47.10
2019-04-25T14:40:15.095Z,46.60
2019-04-25T14:42:45.520Z,46.90
2019-04-25T14:45:17.247Z,47.50
2019-04-25T14:47:47.621Z,47.80
2019-04-25T14:50:17.969Z,46.70
2019-04-25T14:52:48.265Z,46.00
2019-04-25T14:55:36.778Z,46.70
2019-04-25T14:58:13.885Z,46.30
2019-04-25T15:00:46.158Z,45.70
2019-04-25T15:03:17.506Z,46.70
2019-04-25T15:05:49.879Z,46.70
2019-04-25T15:08:21.535Z,45.40
2019-04-25T15:10:52.883Z,45.20
2019-04-25T15:13:27.751Z,44.70
2019-04-25T15:15:59.316Z,44.50
2019-04-25T15:18:30.946Z,43.70
2019-04-25T15:21:01.407Z,44.00
2019-04-25T15:23:32.108Z,44.70
2019-04-25T15:26:02.469Z,44.50
2019-04-25T15:28:32.845Z,43.90
2019-04-25T15:31:03.438Z,44.20
2019-04-25T15:33:33.825Z,43.40
2019-04-25T15:36:21.573Z,43.80
2019-04-25T15:39:09.722Z,43.50
2019-04-25T15:41:46.043Z,43.10
2019-04-25T15:44:35.467Z,43.50
2019-04-25T15:47:08.548Z,43.50
2019-04-25T15:49:40.728Z,43.70
2019-04-25T15:52:11.286Z,43.90
2019-04-25T15:54:41.624Z,43.40
2019-04-25T15:57:12.141Z,42.30
2019-04-25T15:59:43.432Z,42.50
2019-04-25T16:02:15.896Z,43.40
2019-04-25T16:04:48.016Z,44.10
2019-04-25T16:07:22.815Z,44.20
2019-04-25T16:09:54.822Z,44.20
2019-04-25T16:12:26.541Z,44.10
2019-04-25T16:14:58.166Z,44.50
2019-04-25T16:17:29.456Z,45.10
2019-04-25T16:20:01.587Z,45.10
2019-04-25T16:22:32.786Z,45.20
2019-04-25T16:25:02.837Z,44.60
2019-04-25T16:27:33.602Z,44.40
2019-04-25T16:30:08.848Z,44.00
2019-04-25T16:32:39.490Z,43.90
2019-04-25T16:35:10.211Z,43.50
2019-04-25T16:37:41.397Z,43.10
2019-04-25T16:40:11.999Z,43.30
2019-04-25T16:42:44.187Z,43.40
2019-04-25T16:45:14.845Z,43.10
2019-04-25T16:47:46.284Z,43.10
2019-04-25T16:50:19.097Z,43.30
2019-04-25T16:52:49.610Z,43.40
2019-04-25T16:55:21.449Z,43.40
2019-04-25T16:57:51.334Z,43.70
2019-04-25T17:00:40.822Z,43.50
2019-04-25T17:03:12.469Z,43.60
2019-04-25T17:05:43.031Z,44.30
2019-04-25T17:08:13.374Z,44.70
2019-04-25T17:10:43.700Z,44.80
2019-04-25T17:13:14.378Z,45.00
2019-04-25T17:16:17.737Z,45.00
2019-04-25T17:18:58.056Z,45.40
2019-04-25T17:21:28.457Z,45.70
2019-04-25T17:23:58.943Z,45.50
2019-04-25T17:26:30.394Z,45.80
2019-04-25T17:29:06.086Z,45.80
2019-04-25T17:31:54.493Z,45.60
2019-04-25T17:34:50.108Z,45.70
2019-04-25T17:37:47.713Z,45.90
2019-04-25T17:40:22.838Z,46.00
2019-04-25T17:43:10.527Z,46.20
2019-04-25T17:45:35.168Z,46.30
2019-04-25T17:48:09.534Z,46.30
2019-04-25T17:50:41.790Z,46.30
2019-04-25T17:53:12.074Z,46.40
2019-04-25T17:55:42.550Z,46.50
2019-04-25T17:58:13.292Z,46.40
2019-04-25T18:00:45.046Z,46.70
2019-04-25T18:03:15.722Z,46.90
2019-04-25T18:05:46.101Z,46.50
2019-04-25T18:08:16.512Z,46.40
2019-04-25T18:10:46.862Z,46.50
2019-04-25T18:13:17.301Z,46.40
2019-04-25T18:15:54.613Z,46.60
2019-04-25T18:18:42.334Z,46.80
2019-04-25T18:21:12.666Z,46.70
2019-04-25T18:24:05.258Z,47.00
2019-04-25T18:26:41.341Z,47.10
2019-04-25T18:29:13.229Z,47.20
2019-04-25T18:31:43.870Z,47.10
2019-04-25T18:34:37.420Z,47.30
2019-04-25T18:37:22.634Z,47.10
2019-04-25T18:39:59.577Z,47.10
2019-04-25T18:42:51.742Z,47.20
2019-04-25T18:45:26.816Z,47.30
2019-04-25T18:47:57.213Z,47.30
2019-04-25T18:50:29.301Z,47.30
2019-04-25T18:53:18.613Z,47.30
2019-04-25T18:55:56.288Z,47.30
2019-04-25T18:58:51.571Z,47.20
2019-04-25T19:01:34.976Z,47.20
2019-04-25T19:04:27.700Z,47.40
2019-04-25T19:06:58.424Z,47.40
2019-04-25T19:09:28.822Z,47.50
2019-04-25T19:11:59.222Z,47.70
2019-04-25T19:14:34.356Z,47.70
2019-04-25T19:17:06.053Z,47.80
2019-04-25T19:19:36.366Z,47.90
2019-04-25T19:22:06.349Z,48.10
2019-04-25T19:24:36.648Z,48.20
2019-04-25T19:27:07.042Z,48.30
2019-04-25T19:29:40.331Z,48.50
2019-04-25T19:32:10.777Z,48.50
2019-04-25T19:34:42.515Z,48.60
2019-04-25T19:37:12.971Z,48.80
2019-04-25T19:39:47.554Z,48.90
2019-04-25T19:42:26.301Z,49.00
2019-04-25T19:44:56.690Z,49.00
2019-04-25T19:47:27.006Z,49.10
2019-04-25T19:49:57.325Z,49.20
2019-04-25T19:52:29.598Z,49.30
2019-04-25T19:54:59.726Z,49.40
2019-04-25T19:57:30.189Z,49.50
2019-04-25T20:00:00.547Z,50.00
2019-04-25T20:02:48.841Z,49.40
2019-04-25T20:05:24.758Z,49.60
2019-04-25T20:08:00.182Z,49.50
2019-04-25T20:10:38.335Z,49.60
2019-04-25T20:13:08.778Z,49.50
2019-04-25T20:15:39.259Z,50.20
2019-04-25T20:18:09.583Z,50.00
2019-04-25T20:20:39.949Z,49.80
2019-04-25T20:23:10.360Z,50.10
2019-04-25T20:25:41.345Z,50.50
2019-04-25T20:28:13.267Z,50.40
2019-04-25T20:30:45.435Z,49.70
2019-04-25T20:33:15.555Z,49.80
2019-04-25T20:35:46.367Z,49.80
2019-04-25T20:38:17.823Z,49.80
2019-04-25T20:40:48.143Z,50.00
2019-04-25T20:43:18.447Z,50.20
2019-04-25T20:45:48.836Z,50.50
2019-04-25T20:48:19.155Z,50.40
2019-04-25T20:50:50.329Z,50.70
2019-04-25T20:53:20.867Z,50.80
2019-04-25T20:55:51.623Z,51.00
2019-04-25T20:58:23.409Z,51.30
2019-04-25T21:00:57.788Z,51.60
2019-04-25T21:03:28.545Z,51.70
2019-04-25T21:06:06.519Z,51.70
2019-04-25T21:08:36.974Z,51.90
2019-04-25T21:11:09.055Z,52.10
2019-04-25T21:13:57.311Z,52.20
2019-04-25T21:16:44.899Z,52.30
2019-04-25T21:19:16.997Z,52.40
2019-04-25T21:21:49.512Z,52.30
2019-04-25T21:24:20.197Z,52.30
2019-04-25T21:26:52.723Z,52.60
2019-04-25T21:29:23.598Z,52.60
2019-04-25T21:31:58.859Z,52.80
2019-04-25T21:34:30.362Z,52.80
2019-04-25T21:37:02.092Z,53.00
2019-04-25T21:39:41.254Z,53.10
2019-04-25T21:42:28.707Z,53.10
2019-04-25T21:45:00.415Z,53.20
2019-04-25T21:47:31.582Z,53.50
2019-04-25T21:50:03.079Z,53.70
2019-04-25T21:52:33.801Z,53.70
2019-04-25T21:55:07.845Z,53.90
2019-04-25T21:57:39.140Z,54.10
2019-04-25T22:00:12.411Z,54.20
2019-04-25T22:02:44.005Z,54.40
2019-04-25T22:05:18.172Z,54.60
2019-04-25T22:07:49.437Z,54.80
2019-04-25T22:10:19.753Z,54.80
2019-04-25T22:12:51.582Z,54.90
2019-04-25T22:15:22.222Z,54.90
2019-04-25T22:17:53.856Z,55.20
2019-04-25T22:20:25.135Z,55.30
2019-04-25T22:22:58.854Z,55.50
2019-04-25T22:25:29.205Z,55.60
2019-04-25T22:28:03.002Z,55.60
2019-04-25T22:30:35.083Z,55.70
2019-04-25T22:33:34.401Z,55.70
2019-04-25T22:36:08.817Z,55.90
2019-04-25T22:38:39.997Z,56.20
2019-04-25T22:41:09.916Z,56.40
2019-04-25T22:43:50.231Z,56.50
2019-04-25T22:46:25.977Z,56.70
2019-04-25T22:48:55.104Z,56.80
2019-04-25T22:51:25.541Z,56.80
2019-04-25T22:53:58.390Z,56.80
2019-04-25T22:56:32.976Z,56.80
2019-04-25T22:59:04.610Z,56.80
2019-04-25T23:01:48.608Z,57.10
2019-04-25T23:04:29.055Z,57.80
2019-04-25T23:06:59.446Z,57.10
2019-04-25T23:09:32.214Z,57.30
2019-04-25T23:12:06.667Z,57.40
2019-04-25T23:14:38.519Z,57.40
2019-04-25T23:17:09.419Z,57.50
2019-04-25T23:19:39.841Z,57.60
2019-04-25T23:22:10.197Z,57.90
2019-04-25T23:24:45.730Z,58.00
2019-04-25T23:27:53.529Z,58.20
2019-04-25T23:30:27.737Z,58.10
2019-04-25T23:32:58.077Z,58.50
2019-04-25T23:35:32.728Z,58.80
2019-04-25T23:38:00.343Z,58.90
2019-04-25T23:40:30.648Z,58.90
2019-04-25T23:43:01.234Z,59.00
2019-04-25T23:45:31.530Z,58.80
2019-04-25T23:48:01.837Z,59.00
2019-04-25T23:50:32.561Z,59.20
2019-04-25T23:53:02.910Z,59.50
2019-04-25T23:55:34.132Z,59.70
2019-04-25T23:58:04.493Z,60.20
